Time;durP1;ratioP1;P1;durP2;ratioP2;P2;SDS_P1;SDS_P2;PMS_P1;PMS_P2;Temp;Humidity;BMP_temperature;BMP_pressure;BME280_temperature;BME280_humidity;BME280_pressure;Samples;Min_cycle;Max_cycle;Signal;HPM_P1;HPM_P2
2022/07/25 00:01:16;;;;;;;5.90;3.00;;;;;;;21.14;52.31;100580.95;107935;1275;61891;-83
2022/07/25 00:03:46;;;;;;;6.80;2.90;;;;;;;21.08;52.45;100574.46;107930;1274;74326;-83
2022/07/25 00:06:17;;;;;;;7.20;3.00;;;;;;;21.03;52.49;100572.77;108155;1274;73080;-85
2022/07/25 00:08:43;;;;;;;5.90;3.00;;;;;;;20.98;52.79;100569.66;107982;1275;74061;-85
2022/07/25 00:11:16;;;;;;;6.10;2.90;;;;;;;20.90;53.06;100565.94;108008;1274;60950;-85
2022/07/25 00:13:43;;;;;;;6.80;3.00;;;;;;;20.84;53.41;100566.55;107999;1274;60701;-85
2022/07/25 00:16:19;;;;;;;6.10;3.10;;;;;;;20.78;53.34;100560.64;108041;1275;74840;-85
2022/07/25 00:18:46;;;;;;;6.50;2.90;;;;;;;20.73;53.41;100556.73;107996;1275;71222;-85
2022/07/25 00:21:16;;;;;;;6.00;3.00;;;;;;;20.68;53.60;100559.39;108166;1274;76077;-86
2022/07/25 00:23:43;;;;;;;6.70;3.20;;;;;;;20.63;53.67;100556.65;107690;1278;60381;-85
2022/07/25 00:26:18;;;;;;;6.40;3.10;;;;;;;20.59;53.90;100550.93;108016;1274;60898;-83
2022/07/25 00:28:44;;;;;;;6.60;3.20;;;;;;;20.54;54.01;100555.10;108167;1274;74330;-84
2022/07/25 00:31:17;;;;;;;7.10;3.00;;;;;;;20.49;54.31;100547.15;108128;1274;71860;-84
2022/07/25 00:33:44;;;;;;;7.70;3.30;;;;;;;20.44;54.48;100547.55;107839;1275;72931;-84
2022/07/25 00:36:18;;;;;;;6.20;3.40;;;;;;;20.39;54.58;100544.02;107953;1274;62076;-84
2022/07/25 00:38:44;;;;;;;8.20;3.30;;;;;;;20.34;54.62;100539.63;108068;1275;60498;-84
2022/07/25 00:41:17;;;;;;;6.60;3.20;;;;;;;20.29;54.97;100537.60;108039;1274;76203;-83
2022/07/25 00:43:44;;;;;;;5.30;3.30;;;;;;;20.26;55.02;100541.09;108057;1274;71857;-84
2022/07/25 00:46:17;;;;;;;6.80;3.60;;;;;;;20.21;55.20;100540.38;108029;1274;76172;-84
2022/07/25 00:48:47;;;;;;;8.30;3.60;;;;;;;20.17;55.28;100535.17;107929;1277;61643;-84
2022/07/25 00:51:24;;;;;;;5.20;3.10;;;;;;;20.13;55.51;100530.03;108058;1274;60382;-84
2022/07/25 00:53:51;;;;;;;5.40;3.20;;;;;;;20.09;55.59;100527.98;108044;1275;74120;-84
2022/07/25 00:56:18;;;;;;;8.10;3.80;;;;;;;20.05;55.83;100527.40;108018;1274;72520;-84
2022/07/25 00:58:44;;;;;;;4.50;3.30;;;;;;;20.00;55.88;100526.63;108018;1274;74249;-84
2022/07/25 01:01:17;;;;;;;7.30;3.30;;;;;;;19.95;55.85;100523.59;108028;1275;60985;-84
2022/07/25 01:03:44;;;;;;;7.20;3.80;;;;;;;19.90;56.08;100524.13;107830;1277;62084;-84
2022/07/25 01:06:21;;;;;;;6.00;3.10;;;;;;;19.84;56.30;100522.30;108007;1274;73975;-85
2022/07/25 01:08:50;;;;;;;7.50;3.50;;;;;;;19.78;56.46;100519.92;108074;1274;71515;-84
2022/07/25 01:11:17;;;;;;;6.80;4.20;;;;;;;19.72;56.72;100519.55;108059;1274;73713;-85
2022/07/25 01:13:44;;;;;;;5.40;3.20;;;;;;;19.66;56.73;100517.36;107980;1274;60470;-84
2022/07/25 01:16:16;;;;;;;6.80;3.60;;;;;;;19.62;56.85;100519.10;107937;1274;60801;-85
2022/07/25 01:18:43;;;;;;;8.40;3.20;;;;;;;19.57;57.09;100519.65;107908;1274;74456;-85
2022/07/25 01:21:19;;;;;;;5.60;3.20;;;;;;;19.52;57.23;100518.64;108058;1274;71348;-84
2022/07/25 01:23:46;;;;;;;7.00;3.50;;;;;;;19.48;57.36;100516.58;107794;1277;73443;-84
2022/07/25 01:26:19;;;;;;;5.80;3.30;;;;;;;19.45;57.54;100516.23;107929;1277;60636;-84
2022/07/25 01:28:46;;;;;;;4.90;3.20;;;;;;;19.41;57.64;100514.81;107903;1276;60603;-84
2022/07/25 01:31:19;;;;;;;5.90;3.40;;;;;;;19.38;57.66;100514.21;107882;1276;74295;-84
2022/07/25 01:33:46;;;;;;;6.20;3.20;;;;;;;19.34;57.63;100513.17;108069;1274;71505;-84
2022/07/25 01:36:16;;;;;;;8.00;3.30;;;;;;;19.31;57.73;100514.14;108121;1275;74735;-84
2022/07/25 01:38:42;;;;;;;4.90;3.30;;;;;;;19.28;57.96;100512.17;107971;1274;60759;-84
2022/07/25 01:41:22;;;;;;;6.40;3.40;;;;;;;19.23;58.30;100508.69;108032;1274;61257;-84
2022/07/25 01:43:49;;;;;;;6.10;3.20;;;;;;;19.17;58.26;100506.68;108069;1274;74155;-84
2022/07/25 01:46:22;;;;;;;7.50;3.20;;;;;;;19.14;58.56;100503.39;107883;1274;70395;-84
2022/07/25 01:48:49;;;;;;;4.90;3.00;;;;;;;19.10;58.83;100506.52;107969;1274;74620;-85
2022/07/25 01:51:16;;;;;;;5.70;3.50;;;;;;;19.06;58.90;100499.52;108071;1274;63928;-84
2022/07/25 01:53:46;;;;;;;6.40;3.20;;;;;;;19.04;59.01;100499.95;107966;1274;60727;-84
2022/07/25 01:56:20;;;;;;;5.20;3.00;;;;;;;19.00;59.01;100499.06;108068;1274;74796;-84
2022/07/25 01:58:48;;;;;;;6.60;3.40;;;;;;;18.96;59.15;100495.52;108012;1274;72220;-85
2022/07/25 02:01:15;;;;;;;5.80;3.10;;;;;;;18.93;59.26;100489.60;107977;1276;73906;-84
2022/07/25 02:03:44;;;;;;;5.20;3.10;;;;;;;18.90;59.49;100485.67;107981;1274;62312;-85
2022/07/25 02:06:19;;;;;;;5.40;3.10;;;;;;;18.87;59.64;100482.64;107936;1274;60547;-84
2022/07/25 02:08:46;;;;;;;4.90;3.00;;;;;;;18.83;59.73;100481.38;107885;1274;75465;-84
2022/07/25 02:11:20;;;;;;;6.30;3.00;;;;;;;18.79;60.05;100476.70;107939;1276;70505;-84
2022/07/25 02:13:47;;;;;;;5.30;3.30;;;;;;;18.73;60.32;100472.30;107950;1274;74159;-85
2022/07/25 02:16:22;;;;;;;6.40;3.00;;;;;;;18.68;60.33;100463.89;108000;1274;62466;-86
2022/07/25 02:18:55;;;;;;;5.60;3.30;;;;;;;18.65;60.63;100461.88;107956;1274;60677;-85
2022/07/25 02:21:22;;;;;;;5.00;3.30;;;;;;;18.62;60.54;100458.74;107828;1276;74086;-85
2022/07/25 02:23:49;;;;;;;4.50;3.30;;;;;;;18.60;60.76;100454.11;107835;1274;71397;-84
2022/07/25 02:26:17;;;;;;;8.00;3.40;;;;;;;18.56;60.86;100452.35;107779;1276;72942;-84
2022/07/25 02:28:44;;;;;;;5.70;3.30;;;;;;;18.53;61.07;100453.73;108021;1274;63343;-84
2022/07/25 02:31:12;;;;;;;6.70;3.10;;;;;;;18.49;61.09;100453.11;108096;1275;60699;-84
2022/07/25 02:33:39;;;;;;;4.90;3.20;;;;;;;18.45;61.31;100447.92;107960;1274;75976;-83
2022/07/25 02:36:11;;;;;;;7.40;3.60;;;;;;;18.41;61.27;100446.80;107971;1274;71810;-84
2022/07/25 02:38:38;;;;;;;5.90;3.30;;;;;;;18.38;61.28;100446.67;108089;1274;71859;-84
2022/07/25 02:41:06;;;;;;;6.60;3.30;;;;;;;18.34;61.45;100441.55;107877;1274;62237;-84
2022/07/25 02:43:47;;;;;;;5.50;3.50;;;;;;;18.31;61.47;100436.84;107922;1274;60396;-84
2022/07/25 02:46:17;;;;;;;5.90;3.30;;;;;;;18.28;61.57;100436.61;107987;1272;75690;-84
2022/07/25 02:48:44;;;;;;;5.50;3.30;;;;;;;18.23;61.72;100439.56;107952;1274;72385;-84
2022/07/25 02:51:17;;;;;;;6.80;3.50;;;;;;;18.18;61.90;100432.68;107906;1274;74130;-84
2022/07/25 02:53:45;;;;;;;5.50;3.30;;;;;;;18.14;62.04;100432.09;107737;1277;63271;-84
2022/07/25 02:56:24;;;;;;;5.60;3.50;;;;;;;18.10;62.21;100432.85;108004;1274;59516;-84
2022/07/25 02:58:51;;;;;;;5.90;3.40;;;;;;;18.04;62.21;100429.06;108019;1273;74965;-84
2022/07/25 03:01:24;;;;;;;8.10;3.50;;;;;;;17.99;62.56;100424.90;107788;1274;72743;-84
2022/07/25 03:03:52;;;;;;;6.60;3.60;;;;;;;17.94;62.71;100422.68;107927;1274;72683;-84
2022/07/25 03:06:19;;;;;;;5.90;3.40;;;;;;;17.90;62.78;100419.33;107846;1274;63863;-84
2022/07/25 03:08:46;;;;;;;5.50;3.30;;;;;;;17.87;62.90;100418.63;108053;1274;60718;-84
2022/07/25 03:11:20;;;;;;;5.70;3.30;;;;;;;17.86;62.90;100412.94;107868;1276;73898;-84
2022/07/25 03:13:47;;;;;;;6.50;3.40;;;;;;;17.85;62.93;100411.88;108296;1276;71416;-84
2022/07/25 03:19:55;;;;;;;5.80;3.70;;;;;;;17.81;63.21;100410.05;108011;1274;62702;-85
2022/07/25 03:22:23;;;;;;;5.60;3.40;;;;;;;17.80;63.20;100415.02;107624;1276;60696;-85
2022/07/25 03:24:52;;;;;;;7.50;3.50;;;;;;;17.80;63.42;100413.83;107873;1274;75400;-84
2022/07/25 03:27:19;;;;;;;6.50;3.60;;;;;;;17.79;63.48;100410.42;108133;1274;71934;-85
2022/07/25 03:29:47;;;;;;;4.60;3.60;;;;;;;17.79;63.57;100407.05;107959;1274;73017;-84
2022/07/25 03:32:14;;;;;;;6.50;3.90;;;;;;;17.79;63.71;100403.99;108095;1274;62015;-85
2022/07/25 03:34:42;;;;;;;5.70;3.50;;;;;;;17.80;63.58;100401.20;107991;1274;60463;-85
2022/07/25 03:37:09;;;;;;;5.40;3.90;;;;;;;17.81;63.50;100396.15;108073;1274;76167;-85
2022/07/25 03:39:36;;;;;;;5.50;3.60;;;;;;;17.83;63.54;100394.25;107794;1276;71463;-85
2022/07/25 03:42:03;;;;;;;4.50;3.50;;;;;;;17.86;63.40;100395.02;108112;1274;72926;-85
2022/07/25 03:44:31;;;;;;;6.50;3.60;;;;;;;17.90;63.23;100396.73;107948;1274;63251;-85
2022/07/25 03:46:57;;;;;;;5.80;3.80;;;;;;;17.94;63.06;100399.77;108087;1274;60043;-86
2022/07/25 03:49:25;;;;;;;4.70;3.60;;;;;;;17.98;63.05;100396.58;108043;1274;75303;-85
2022/07/25 03:51:52;;;;;;;5.70;3.50;;;;;;;18.02;63.03;100395.02;108102;1274;71353;-85
2022/07/25 03:54:19;;;;;;;5.20;3.60;;;;;;;18.06;62.79;100394.88;107905;1274;73026;-85
2022/07/25 03:56:48;;;;;;;6.20;3.70;;;;;;;18.10;62.70;100390.59;108005;1274;62963;-85
2022/07/25 03:59:17;;;;;;;6.00;3.60;;;;;;;18.13;62.60;100386.38;108260;1274;60503;-86
2022/07/25 04:01:46;;;;;;;8.20;3.70;;;;;;;18.17;62.57;100384.59;108146;1274;74738;-85
2022/07/25 04:04:13;;;;;;;5.40;3.80;;;;;;;18.20;62.50;100386.28;108258;1275;71187;-85
2022/07/25 04:06:40;;;;;;;6.30;3.80;;;;;;;18.22;62.42;100388.37;108559;1274;73382;-85
2022/07/25 04:09:08;;;;;;;5.80;3.60;;;;;;;18.26;62.30;100385.00;108490;1274;62207;-85
2022/07/25 04:11:37;;;;;;;6.00;3.30;;;;;;;18.29;62.22;100379.89;108344;1274;60322;-85
2022/07/25 04:14:04;;;;;;;5.00;3.50;;;;;;;18.35;62.21;100372.33;108109;1274;74491;-85
2022/07/25 04:16:32;;;;;;;5.50;3.40;;;;;;;18.41;62.03;100367.52;108096;1274;72202;-85
2022/07/25 04:19:00;;;;;;;5.90;3.80;;;;;;;18.47;61.91;100362.57;107930;1274;72999;-84
2022/07/25 04:21:27;;;;;;;5.40;3.50;;;;;;;18.53;61.77;100364.25;107943;1274;61667;-85
2022/07/25 04:23:55;;;;;;;6.10;3.60;;;;;;;18.59;61.62;100362.54;108039;1274;61751;-85
2022/07/25 04:26:22;;;;;;;4.60;3.30;;;;;;;18.65;61.55;100356.55;108026;1274;75082;-85
2022/07/25 04:28:49;;;;;;;4.70;3.50;;;;;;;18.73;61.44;100357.35;107820;1276;71264;-84
2022/07/25 04:31:16;;;;;;;6.70;3.40;;;;;;;18.81;61.09;100354.04;107934;1273;73572;-85
2022/07/25 04:33:44;;;;;;;5.70;3.40;;;;;;;18.87;60.83;100351.75;108056;1274;61253;-85
2022/07/25 04:36:11;;;;;;;5.30;3.40;;;;;;;18.95;60.70;100351.97;107918;1274;61763;-85
2022/07/25 04:38:38;;;;;;;5.20;3.20;;;;;;;19.04;60.45;100349.17;107923;1274;74978;-85
2022/07/25 04:41:05;;;;;;;8.80;3.30;;;;;;;19.12;60.24;100344.77;107859;1276;72870;-85
2022/07/25 04:43:32;;;;;;;5.20;3.40;;;;;;;19.23;60.11;100340.17;108015;1275;74225;-84
2022/07/25 04:46:00;;;;;;;6.50;3.20;;;;;;;19.33;59.92;100326.81;107949;1274;62785;-85
2022/07/25 04:48:28;;;;;;;5.60;3.20;;;;;;;19.44;59.64;100325.75;107745;1276;61549;-86
2022/07/25 04:50:55;;;;;;;5.20;3.20;;;;;;;19.53;59.34;100322.58;108016;1274;75192;-86
2022/07/25 04:53:22;;;;;;;4.90;3.30;;;;;;;19.63;59.24;100317.48;107932;1274;71455;-85
2022/07/25 04:55:49;;;;;;;6.90;3.60;;;;;;;19.75;59.08;100311.34;107862;1275;73952;-85
2022/07/25 04:58:16;;;;;;;5.00;3.10;;;;;;;19.85;58.74;100309.73;107885;1274;62086;-85
2022/07/25 05:00:43;;;;;;;5.50;3.40;;;;;;;19.94;58.69;100306.41;108004;1274;60427;-85
2022/07/25 05:03:11;;;;;;;6.80;2.90;;;;;;;20.04;58.60;100303.90;107984;1274;74216;-85
2022/07/25 05:05:37;;;;;;;5.10;3.00;;;;;;;20.14;58.34;100300.60;107827;1274;72977;-85
2022/07/25 05:08:05;;;;;;;4.10;3.00;;;;;;;20.20;57.95;100298.82;108134;1274;72958;-85
2022/07/25 05:10:32;;;;;;;5.00;3.10;;;;;;;20.29;57.87;100295.02;107800;1276;62320;-85
2022/07/25 05:12:59;;;;;;;4.50;3.00;;;;;;;20.38;57.48;100290.33;108041;1274;61310;-85
2022/07/25 05:15:26;;;;;;;5.50;2.90;;;;;;;20.48;57.16;100290.56;108181;1274;74158;-85
2022/07/25 05:17:53;;;;;;;4.80;2.80;;;;;;;20.59;56.56;100289.30;108069;1273;72957;-85
2022/07/25 05:20:21;;;;;;;5.10;2.80;;;;;;;20.71;56.24;100283.15;108059;1274;73023;-84
2022/07/25 05:22:48;;;;;;;7.30;3.20;;;;;;;20.83;55.79;100284.58;108101;1274;59273;-84
2022/07/25 05:25:15;;;;;;;5.00;2.70;;;;;;;20.95;55.32;100277.66;108055;1275;60498;-84
2022/07/25 05:27:42;;;;;;;5.50;2.70;;;;;;;21.06;55.04;100273.99;108003;1274;74119;-84
2022/07/25 05:30:10;;;;;;;5.30;3.20;;;;;;;21.17;54.82;100275.23;107917;1274;71743;-84
2022/07/25 05:32:38;;;;;;;4.10;2.70;;;;;;;21.30;54.42;100273.98;107911;1275;74113;-84
2022/07/25 05:35:07;;;;;;;4.20;2.80;;;;;;;21.43;54.26;100274.38;107363;1274;61575;-83
2022/07/25 05:37:34;;;;;;;4.00;2.90;;;;;;;21.57;54.08;100268.95;107530;1274;61572;-83
2022/07/25 05:40:03;;;;;;;3.50;3.00;;;;;;;21.74;53.91;100270.05;108054;1274;74222;-82
2022/07/25 05:42:30;;;;;;;4.40;3.10;;;;;;;21.94;53.77;100266.92;107764;1274;71405;-83
2022/07/25 05:44:57;;;;;;;5.00;2.80;;;;;;;22.11;53.19;100266.05;107921;1274;74578;-83
2022/07/25 05:47:24;;;;;;;3.90;2.90;;;;;;;22.27;52.56;100267.73;108038;1274;61761;-83
2022/07/25 05:49:51;;;;;;;4.80;2.90;;;;;;;22.44;52.38;100260.51;108028;1274;60440;-83
2022/07/25 05:52:18;;;;;;;5.90;2.80;;;;;;;22.62;51.60;100255.38;107847;1274;75164;-82
2022/07/25 05:54:45;;;;;;;6.70;3.10;;;;;;;22.79;50.98;100253.20;108026;1274;71659;-83
2022/07/25 05:57:13;;;;;;;4.20;2.70;;;;;;;22.94;50.55;100251.45;107832;1273;73527;-83
2022/07/25 05:59:40;;;;;;;5.70;2.90;;;;;;;23.08;49.74;100246.52;107902;1275;62252;-82
2022/07/25 06:02:07;;;;;;;5.70;2.70;;;;;;;23.26;49.37;100249.40;107845;1274;61658;-82
2022/07/25 06:04:34;;;;;;;4.30;3.00;;;;;;;23.44;49.06;100245.77;107943;1274;74160;-83
2022/07/25 06:07:01;;;;;;;4.60;2.60;;;;;;;23.64;48.43;100245.21;107838;1274;72683;-83
2022/07/25 06:09:30;;;;;;;5.10;2.80;;;;;;;23.84;47.90;100241.96;108012;1276;72922;-82
2022/07/25 06:11:57;;;;;;;4.70;2.80;;;;;;;24.05;46.86;100241.04;108029;1274;61658;-82
2022/07/25 06:14:27;;;;;;;6.30;3.00;;;;;;;24.24;46.63;100237.50;108050;1274;60122;-81
2022/07/25 06:16:56;;;;;;;6.30;3.40;;;;;;;24.40;46.68;100232.81;107953;1274;74099;-83
2022/07/25 06:19:23;;;;;;;5.10;3.00;;;;;;;24.57;46.09;100229.77;107958;1275;71382;-83
2022/07/25 06:21:50;;;;;;;5.90;2.70;;;;;;;24.76;46.03;100227.06;107849;1276;72114;-82
2022/07/25 06:24:17;;;;;;;4.00;3.00;;;;;;;24.97;44.86;100225.47;107948;1274;60582;-84
2022/07/25 06:26:43;;;;;;;5.10;3.10;;;;;;;25.16;43.82;100215.98;107991;1275;61856;-86
2022/07/25 06:29:11;;;;;;;5.10;3.20;;;;;;;25.34;43.79;100214.77;107856;1276;76728;-86
2022/07/25 06:31:38;;;;;;;4.40;2.70;;;;;;;25.53;42.75;100215.90;107894;1274;71479;-87
2022/07/25 06:34:05;;;;;;;5.00;3.00;;;;;;;25.68;41.88;100213.68;108065;1275;72684;-86
2022/07/25 06:36:33;;;;;;;4.50;3.00;;;;;;;25.88;41.75;100217.45;108059;1274;59447;-86
2022/07/25 06:39:01;;;;;;;5.50;2.70;;;;;;;26.10;41.81;100215.54;107928;1274;60581;-87
2022/07/25 06:41:28;;;;;;;6.10;2.70;;;;;;;26.28;41.03;100218.14;107697;1276;74214;-86
2022/07/25 06:43:54;;;;;;;4.90;2.80;;;;;;;26.49;40.87;100209.92;107837;1274;71661;-86
2022/07/25 06:46:21;;;;;;;3.80;2.80;;;;;;;26.73;40.49;100203.17;108026;1274;72807;-86
2022/07/25 06:48:49;;;;;;;3.90;2.90;;;;;;;26.95;39.95;100199.26;107915;1275;61125;-85
2022/07/25 06:51:16;;;;;;;4.50;3.00;;;;;;;27.14;39.24;100188.38;108234;1274;59212;-85
2022/07/25 06:53:43;;;;;;;4.90;2.90;;;;;;;27.30;39.00;100185.68;107614;1275;75217;-85
2022/07/25 06:56:10;;;;;;;6.40;2.80;;;;;;;27.46;38.83;100183.11;107816;1274;72369;-85
2022/07/25 06:58:43;;;;;;;4.90;2.90;;;;;;;27.62;38.98;100183.57;107686;1277;73388;-85
2022/07/25 07:01:11;;;;;;;5.30;3.00;;;;;;;27.76;38.22;100179.13;107821;1274;60397;-85
2022/07/25 07:03:38;;;;;;;5.10;3.20;;;;;;;27.86;38.06;100179.58;107860;1274;60279;-86
2022/07/25 07:06:08;;;;;;;5.00;2.80;;;;;;;27.91;38.03;100185.33;108143;1276;74174;-86
2022/07/25 07:08:35;;;;;;;4.00;2.80;;;;;;;27.94;38.34;100184.16;108116;1274;72056;-86
2022/07/25 07:11:06;;;;;;;4.20;3.20;;;;;;;28.06;37.90;100175.54;107884;1274;74064;-85
2022/07/25 07:13:33;;;;;;;3.60;2.90;;;;;;;28.28;37.57;100179.80;108164;1274;61664;-86
2022/07/25 07:16:00;;;;;;;3.90;3.20;;;;;;;28.45;37.31;100171.27;107759;1274;60956;-86
2022/07/25 07:18:27;;;;;;;4.80;3.30;;;;;;;28.52;36.49;100172.98;107919;1274;74026;-87
2022/07/25 07:20:54;;;;;;;4.30;3.00;;;;;;;28.56;36.49;100169.16;107735;1274;71403;-85
2022/07/25 07:23:21;;;;;;;4.40;3.30;;;;;;;28.74;36.84;100164.93;108005;1273;73536;-86
2022/07/25 07:25:50;;;;;;;5.80;3.40;;;;;;;28.97;36.29;100168.63;108123;1274;61559;-86
2022/07/25 07:28:17;;;;;;;5.80;3.40;;;;;;;29.09;36.00;100166.05;107956;1276;60401;-87
2022/07/25 07:30:44;;;;;;;4.80;3.30;;;;;;;29.27;36.03;100165.17;108100;1274;73622;-85
2022/07/25 07:33:34;;;;;;;4.10;3.40;;;;;;;29.53;36.04;100156.77;107776;1274;71907;-84
2022/07/25 07:36:01;;;;;;;6.00;3.30;;;;;;;29.74;35.58;100155.33;108254;1274;73783;-85
2022/07/25 07:38:31;;;;;;;4.30;3.40;;;;;;;29.96;35.58;100156.62;107768;1275;60659;-85
2022/07/25 07:40:58;;;;;;;3.90;3.40;;;;;;;30.14;35.46;100149.16;108141;1275;59460;-85
2022/07/25 07:43:24;;;;;;;4.70;3.50;;;;;;;30.28;34.92;100148.17;107950;1274;74153;-84
2022/07/25 07:45:59;;;;;;;5.40;3.60;;;;;;;30.30;34.58;100147.23;108088;1274;71373;-86
2022/07/25 07:48:28;;;;;;;4.60;3.50;;;;;;;30.33;34.15;100142.45;107824;1274;73474;-85
2022/07/25 07:50:56;;;;;;;5.00;3.70;;;;;;;30.47;34.52;100132.75;107824;1275;59471;-85
2022/07/25 07:55:42;;;;;;;5.70;3.80;;;;;;;30.67;34.40;100129.88;107914;1276;60939;-85
2022/07/25 07:56:10;;;;;;;6.40;3.70;;;;;;;30.85;33.75;100133.25;108074;1274;74688;-86
2022/07/25 07:58:37;;;;;;;6.30;4.60;;;;;;;30.95;32.92;100132.11;107850;1276;71423;-84
2022/07/25 08:01:05;;;;;;;4.90;3.80;;;;;;;31.00;32.86;100127.57;108064;1274;72729;-85
2022/07/25 08:03:33;;;;;;;4.50;3.90;;;;;;;31.15;32.84;100124.02;107931;1274;61922;-86
2022/07/25 08:06:00;;;;;;;4.60;3.80;;;;;;;31.11;32.44;100122.14;107847;1274;60545;-86
2022/07/25 08:08:27;;;;;;;6.10;4.20;;;;;;;31.04;32.65;100115.13;107953;1276;76158;-86
2022/07/25 08:10:57;;;;;;;5.40;4.30;;;;;;;30.92;32.38;100117.59;108039;1275;72800;-85
2022/07/25 08:13:29;;;;;;;4.10;3.70;;;;;;;30.86;32.72;100113.05;107903;1276;74010;-85
2022/07/25 08:15:59;;;;;;;5.20;3.80;;;;;;;30.85;32.56;100119.65;108037;1275;62072;-85
2022/07/25 08:18:28;;;;;;;4.70;4.10;;;;;;;30.94;32.89;100114.62;108002;1274;60856;-84
2022/07/25 08:20:56;;;;;;;4.60;3.40;;;;;;;31.00;32.66;100115.89;107824;1273;75476;-86
2022/07/25 08:23:24;;;;;;;4.40;4.00;;;;;;;31.04;32.55;100113.81;108063;1274;72177;-84
2022/07/25 08:25:51;;;;;;;5.60;3.70;;;;;;;31.10;32.45;100110.83;107921;1274;72407;-84
2022/07/25 08:28:18;;;;;;;4.40;3.70;;;;;;;31.19;32.42;100110.73;107942;1275;60149;-84
2022/07/25 08:30:45;;;;;;;7.20;4.00;;;;;;;31.25;32.42;100106.20;107808;1273;59328;-85
2022/07/25 08:33:14;;;;;;;6.60;4.50;;;;;;;31.27;32.47;100102.88;107952;1274;74350;-86
2022/07/25 08:35:51;;;;;;;4.60;3.80;;;;;;;31.36;32.86;100105.08;107781;1273;71291;-84
2022/07/25 08:38:19;;;;;;;4.90;3.80;;;;;;;31.39;32.15;100102.95;107917;1274;72986;-85
2022/07/25 08:40:46;;;;;;;4.40;3.90;;;;;;;31.32;32.26;100102.41;107671;1273;61696;-85
2022/07/25 08:43:15;;;;;;;5.40;3.80;;;;;;;31.26;32.17;100098.84;107980;1274;61843;-86
2022/07/25 08:45:47;;;;;;;6.10;4.10;;;;;;;31.37;32.19;100100.35;107747;1274;74480;-86
2022/07/25 08:48:18;;;;;;;4.70;3.90;;;;;;;31.49;31.99;100098.02;108162;1274;71369;-86
2022/07/25 08:50:46;;;;;;;4.80;3.80;;;;;;;31.65;31.81;100095.08;108158;1274;74396;-85
2022/07/25 08:53:16;;;;;;;7.10;4.00;;;;;;;31.88;32.22;100090.96;108250;1275;61859;-85
2022/07/25 08:55:59;;;;;;;7.20;4.10;;;;;;;32.18;31.71;100094.30;108304;1275;59324;-85
2022/07/25 08:58:26;;;;;;;4.30;3.70;;;;;;;32.30;31.00;100090.98;108231;1273;73240;-85
2022/07/25 09:00:52;;;;;;;10.20;4.30;;;;;;;32.38;30.58;100075.02;108266;1274;72596;-85
2022/07/25 09:03:20;;;;;;;6.60;3.90;;;;;;;32.51;30.30;100073.77;108129;1275;73343;-86
2022/07/25 09:05:46;;;;;;;4.20;3.70;;;;;;;32.68;30.28;100072.42;108411;1274;60649;-85
2022/07/25 09:08:18;;;;;;;5.00;4.00;;;;;;;32.81;29.53;100071.46;108152;1274;60615;-85
2022/07/25 09:10:52;;;;;;;4.40;4.00;;;;;;;33.01;30.16;100058.66;108154;1274;74541;-86
2022/07/25 09:13:22;;;;;;;5.10;3.90;;;;;;;33.24;29.11;100059.81;107978;1274;73027;-85
2022/07/25 09:15:55;;;;;;;5.30;4.00;;;;;;;33.28;29.04;100054.59;107786;1276;74224;-86
2022/07/25 09:18:24;;;;;;;4.40;3.70;;;;;;;33.39;29.17;100058.45;107986;1274;60771;-85
2022/07/25 09:20:52;;;;;;;5.40;4.00;;;;;;;33.45;28.89;100055.41;108021;1274;60344;-85
2022/07/25 09:23:33;;;;;;;4.60;3.80;;;;;;;33.51;28.97;100052.63;108030;1274;75601;-85
2022/07/25 09:26:12;;;;;;;5.20;3.80;;;;;;;33.62;28.78;100048.75;107856;1275;71304;-84
2022/07/25 09:28:52;;;;;;;5.80;4.00;;;;;;;33.75;28.52;100051.59;107849;1274;73033;-85
2022/07/25 09:31:19;;;;;;;4.30;3.90;;;;;;;33.86;28.21;100054.13;108220;1274;59162;-86
2022/07/25 09:33:55;;;;;;;7.40;4.10;;;;;;;33.93;27.95;100054.15;107843;1275;61771;-86
2022/07/25 09:36:22;;;;;;;4.70;4.20;;;;;;;33.91;27.86;100049.16;107722;1276;73240;-84
2022/07/25 09:38:59;;;;;;;5.10;4.50;;;;;;;34.01;28.20;100045.95;107873;1274;71778;-84
2022/07/25 09:41:40;;;;;;;4.50;4.10;;;;;;;34.05;27.84;100052.70;107967;1273;73128;-84
2022/07/25 09:44:28;;;;;;;5.30;4.10;;;;;;;34.00;28.13;100054.20;108062;1274;59147;-84
2022/07/25 09:47:09;;;;;;;4.80;4.00;;;;;;;34.00;28.00;100038.48;108037;1274;60858;-85
2022/07/25 09:49:42;;;;;;;6.70;4.30;;;;;;;33.97;27.87;100040.20;108066;1274;76028;-85
2022/07/25 09:52:12;;;;;;;4.30;3.90;;;;;;;34.01;28.18;100033.09;108087;1274;71348;-85
2022/07/25 09:54:39;;;;;;;4.90;3.60;;;;;;;33.93;27.66;100040.64;108048;1274;72897;-85
2022/07/25 09:57:06;;;;;;;5.60;4.00;;;;;;;33.98;27.59;100034.00;108191;1274;61021;-84
2022/07/25 09:59:33;;;;;;;4.80;4.30;;;;;;;34.01;28.06;100033.40;108101;1274;60578;-84
2022/07/25 10:02:22;;;;;;;6.30;4.20;;;;;;;34.07;28.24;100026.42;108023;1274;74236;-84
2022/07/25 10:05:15;;;;;;;4.60;4.00;;;;;;;34.17;28.06;100020.59;108052;1275;72927;-85
2022/07/25 10:07:46;;;;;;;5.30;4.10;;;;;;;34.25;28.03;100020.33;108076;1274;73258;-84
2022/07/25 10:10:40;;;;;;;5.50;3.90;;;;;;;34.16;27.58;100023.39;107933;1274;60589;-84
2022/07/25 10:13:14;;;;;;;4.50;4.10;;;;;;;34.12;27.50;100017.05;108233;1274;60587;-84
2022/07/25 10:15:51;;;;;;;6.40;4.00;;;;;;;34.07;27.62;100014.86;107995;1275;75436;-86
2022/07/25 10:18:20;;;;;;;4.60;4.00;;;;;;;34.18;27.24;100011.40;107976;1274;71038;-85
2022/07/25 10:20:49;;;;;;;5.10;4.10;;;;;;;34.28;26.87;100010.19;107951;1276;75382;-85
2022/07/25 10:23:27;;;;;;;4.50;3.60;;;;;;;34.32;26.68;100010.77;107914;1274;62025;-85
2022/07/25 10:26:12;;;;;;;5.00;4.00;;;;;;;34.43;26.42;100004.98;107957;1274;60365;-84
2022/07/25 10:28:43;;;;;;;5.40;4.10;;;;;;;34.64;26.67;99998.48;107979;1274;74444;-84
2022/07/25 10:31:32;;;;;;;4.60;4.00;;;;;;;34.78;26.46;100004.27;108101;1273;74757;-84
2022/07/25 10:34:05;;;;;;;4.40;4.00;;;;;;;34.89;27.28;99992.95;108086;1274;73010;-85
2022/07/25 10:36:54;;;;;;;4.70;4.10;;;;;;;34.97;27.08;99991.52;107968;1275;60321;-84
2022/07/25 10:39:22;;;;;;;4.90;4.00;;;;;;;34.91;26.61;99986.25;107939;1274;59623;-84
2022/07/25 10:41:52;;;;;;;5.00;3.60;;;;;;;35.04;26.48;99982.06;107718;1276;75099;-83
2022/07/25 10:44:19;;;;;;;5.50;4.00;;;;;;;35.19;26.16;99989.83;107958;1274;71957;-84
2022/07/25 10:46:47;;;;;;;4.90;4.00;;;;;;;35.19;26.00;99980.45;107994;1274;71622;-83
2022/07/25 10:49:20;;;;;;;5.80;4.00;;;;;;;35.14;26.09;99979.30;107856;1276;60715;-83
2022/07/25 10:51:59;;;;;;;5.60;3.80;;;;;;;35.19;26.37;99974.32;108157;1274;60925;-83
2022/07/25 10:54:33;;;;;;;4.10;3.70;;;;;;;35.33;26.17;99970.92;107943;1276;74150;-83
2022/07/25 10:57:00;;;;;;;7.70;3.90;;;;;;;35.40;26.06;99979.35;108141;1275;71178;-85
2022/07/25 10:59:36;;;;;;;4.70;3.70;;;;;;;35.43;26.08;99977.77;107599;1275;72995;-84
2022/07/25 11:02:08;;;;;;;4.60;4.20;;;;;;;35.53;26.00;99974.14;107385;1274;528429;-84
2022/07/25 11:04:35;;;;;;;4.70;3.90;;;;;;;35.64;25.69;99972.62;107988;1272;60358;-84
2022/07/25 11:07:12;;;;;;;4.60;4.00;;;;;;;35.69;25.55;99974.31;108044;1274;75405;-85
2022/07/25 11:09:40;;;;;;;4.40;3.80;;;;;;;35.86;25.58;99968.69;108063;1274;71485;-84
2022/07/25 11:12:08;;;;;;;4.20;3.80;;;;;;;35.94;25.37;99962.29;108052;1273;72877;-84
2022/07/25 11:14:40;;;;;;;4.80;3.90;;;;;;;36.13;25.48;99955.63;108221;1274;60446;-84
2022/07/25 11:17:14;;;;;;;4.80;3.50;;;;;;;36.25;24.94;99955.55;107819;1275;59902;-85
2022/07/25 11:19:43;;;;;;;6.80;4.00;;;;;;;36.17;24.16;99952.71;108043;1274;74086;-85
2022/07/25 11:22:10;;;;;;;4.80;3.50;;;;;;;36.01;24.68;99959.73;107838;1273;72850;-85
2022/07/25 11:24:46;;;;;;;5.60;4.00;;;;;;;35.79;24.98;99956.31;107966;1273;72177;-84
2022/07/25 11:27:21;;;;;;;4.40;3.80;;;;;;;35.63;25.20;99947.21;107666;1274;63976;-85
2022/07/25 11:29:48;;;;;;;5.70;3.80;;;;;;;35.46;25.40;99947.34;108201;1273;60349;-85
2022/07/25 11:32:14;;;;;;;5.70;3.50;;;;;;;35.29;25.88;99939.41;108053;1273;74528;-84